Time;durP1;ratioP1;P1;durP2;ratioP2;P2;SDS_P1;SDS_P2;PMS_P1;PMS_P2;Temp;Humidity;BMP_temperature;BMP_pressure;BME280_temperature;BME280_humidity;BME280_pressure;Samples;Min_cycle;Max_cycle;Signal;HPM_P1;HPM_P2
2021/06/14 00:01:35;;;;;;;8.82;3.45;;;17.90;61.40;;;;;;4954797;29;20031;-76
2021/06/14 00:04:01;;;;;;;8.43;3.60;;;17.90;61.70;;;;;;4953867;29;20078;-75
2021/06/14 00:06:26;;;;;;;8.02;3.35;;;17.90;62.00;;;;;;4921400;29;20051;-75
2021/06/14 00:08:52;;;;;;;8.05;3.60;;;17.80;62.30;;;;;;4936754;29;20071;-75
2021/06/14 00:11:17;;;;;;;6.68;3.38;;;17.80;62.40;;;;;;4936931;29;20125;-75
2021/06/14 00:13:43;;;;;;;10.90;4.18;;;17.80;62.10;;;;;;4936755;29;20019;-75
2021/06/14 00:16:10;;;;;;;8.13;3.10;;;17.80;62.60;;;;;;4954279;28;20388;-76
2021/06/14 00:18:36;;;;;;;9.40;3.53;;;17.70;62.90;;;;;;4957767;29;20412;-75
2021/06/14 00:21:06;;;;;;;9.75;3.70;;;17.70;62.70;;;;;;4958539;29;20030;-75
2021/06/14 00:23:33;;;;;;;9.20;3.53;;;17.70;63.00;;;;;;4960444;29;20035;-75
2021/06/14 00:26:00;;;;;;;9.80;3.42;;;17.70;63.40;;;;;;4960413;29;20114;-74
2021/06/14 00:28:26;;;;;;;10.13;3.50;;;17.60;63.60;;;;;;4958614;29;20512;-74
2021/06/14 00:30:53;;;;;;;8.65;3.67;;;17.60;63.40;;;;;;4958001;29;20035;-74
2021/06/14 00:33:20;;;;;;;8.30;3.35;;;17.60;63.70;;;;;;4957952;29;20032;-74
2021/06/14 00:35:47;;;;;;;9.23;3.80;;;17.50;63.70;;;;;;4957435;29;20058;-74
2021/06/14 00:38:14;;;;;;;9.10;4.10;;;17.50;63.70;;;;;;4940584;29;20054;-74
2021/06/14 00:40:39;;;;;;;8.45;3.95;;;17.50;64.20;;;;;;4940212;29;20559;-75
2021/06/14 00:43:07;;;;;;;10.60;4.32;;;17.50;64.40;;;;;;4940596;29;20193;-75
2021/06/14 00:45:35;;;;;;;10.98;4.10;;;17.50;64.80;;;;;;4940271;29;20019;-75
2021/06/14 00:48:03;;;;;;;9.57;3.72;;;17.40;64.40;;;;;;4957145;29;20035;-75
2021/06/14 00:50:40;;;;;;;8.90;4.22;;;17.40;64.80;;;;;;4940225;29;20121;-75
2021/06/14 00:53:08;;;;;;;9.80;4.03;;;17.40;64.90;;;;;;4940486;29;20020;-74
2021/06/14 00:55:34;;;;;;;7.75;4.13;;;17.30;65.20;;;;;;4940298;29;20027;-74
2021/06/14 00:58:00;;;;;;;9.32;5.07;;;17.30;65.10;;;;;;4957203;29;20424;-74
2021/06/14 01:00:26;;;;;;;11.48;4.78;;;17.30;65.50;;;;;;4957519;29;20460;-75
2021/06/14 01:02:52;;;;;;;8.68;3.92;;;17.20;65.20;;;;;;4939688;29;20063;-74
2021/06/14 01:05:18;;;;;;;7.60;4.28;;;17.20;65.40;;;;;;4940045;29;20062;-76
2021/06/14 01:07:44;;;;;;;9.68;4.88;;;17.20;65.40;;;;;;4956998;29;20027;-75
2021/06/14 01:10:11;;;;;;;9.52;4.15;;;17.20;65.40;;;;;;4940000;29;20054;-74
2021/06/14 01:12:50;;;;;;;7.95;4.00;;;17.10;65.50;;;;;;4957302;29;20496;-74
2021/06/14 01:15:17;;;;;;;10.48;3.95;;;17.10;66.00;;;;;;4957174;29;20019;-74
2021/06/14 01:17:52;;;;;;;9.10;4.30;;;17.10;66.00;;;;;;4956979;29;20388;-74
2021/06/14 01:20:55;;;;;;;9.30;4.30;;;17.10;66.20;;;;;;4957079;29;20027;-74
2021/06/14 01:23:43;;;;;;;8.98;4.30;;;17.00;65.90;;;;;;4943209;29;20071;-74
2021/06/14 01:26:14;;;;;;;10.52;4.82;;;17.00;66.00;;;;;;4957115;29;20096;-75
2021/06/14 01:28:41;;;;;;;9.18;4.68;;;17.00;66.30;;;;;;4956588;28;20106;-74
2021/06/14 01:31:08;;;;;;;9.93;4.25;;;16.90;66.50;;;;;;4957062;29;20042;-74
2021/06/14 01:33:35;;;;;;;8.80;4.20;;;16.90;66.70;;;;;;4958041;29;20023;-75
2021/06/14 01:36:19;;;;;;;11.27;4.72;;;16.90;66.50;;;;;;4942700;29;20037;-74
2021/06/14 01:38:47;;;;;;;10.57;5.25;;;16.90;66.80;;;;;;4963724;29;20038;-74
2021/06/14 01:41:15;;;;;;;11.85;4.93;;;16.90;67.00;;;;;;4942260;29;20046;-76
2021/06/14 01:43:42;;;;;;;12.52;4.80;;;16.80;67.00;;;;;;4942998;29;20035;-76
2021/06/14 01:46:14;;;;;;;9.80;5.28;;;16.80;67.30;;;;;;4956887;29;20031;-75
2021/06/14 01:48:41;;;;;;;12.73;4.97;;;16.80;67.10;;;;;;4939324;29;20042;-75
2021/06/14 01:51:09;;;;;;;9.55;4.72;;;16.80;67.40;;;;;;4939093;29;20082;-74
2021/06/14 01:53:36;;;;;;;12.63;5.53;;;16.80;67.50;;;;;;4939254;29;20068;-75
2021/06/14 01:56:02;;;;;;;9.15;4.72;;;16.80;67.80;;;;;;4956283;29;20110;-76
2021/06/14 01:58:30;;;;;;;10.85;5.68;;;16.70;67.60;;;;;;4939779;29;20043;-74
2021/06/14 02:00:57;;;;;;;11.88;5.35;;;16.70;67.40;;;;;;4971050;29;20059;-75
2021/06/14 02:03:23;;;;;;;12.85;5.57;;;16.70;67.60;;;;;;4958278;29;20431;-74
2021/06/14 02:05:49;;;;;;;12.95;5.78;;;16.70;67.40;;;;;;4938724;29;20530;-74
2021/06/14 02:08:19;;;;;;;14.02;5.28;;;16.70;67.10;;;;;;4955852;29;20502;-74
2021/06/14 02:10:46;;;;;;;11.80;5.33;;;16.70;66.90;;;;;;4956026;29;20103;-74
2021/06/14 02:13:12;;;;;;;11.07;4.88;;;16.60;66.90;;;;;;4955844;29;20039;-75
2021/06/14 02:15:38;;;;;;;9.65;5.22;;;16.70;67.40;;;;;;4938764;29;20020;-75
2021/06/14 02:18:05;;;;;;;11.25;5.38;;;16.60;67.50;;;;;;4938364;29;20464;-75
2021/06/14 02:20:31;;;;;;;11.15;5.15;;;16.60;67.70;;;;;;4938557;29;20275;-75
2021/06/14 02:22:57;;;;;;;10.80;5.32;;;16.60;67.70;;;;;;4938366;29;20031;-74
2021/06/14 02:25:23;;;;;;;10.30;5.40;;;16.60;68.00;;;;;;4938804;29;20046;-75
2021/06/14 02:27:48;;;;;;;10.88;4.85;;;16.50;68.20;;;;;;4938415;29;20027;-75
2021/06/14 02:30:18;;;;;;;10.73;4.95;;;16.50;68.20;;;;;;4938695;29;20023;-75
2021/06/14 02:32:44;;;;;;;11.00;5.18;;;16.50;68.50;;;;;;4955499;29;20015;-75
2021/06/14 02:35:11;;;;;;;11.35;5.90;;;16.50;68.40;;;;;;4938390;29;20527;-74
2021/06/14 02:37:42;;;;;;;12.50;5.63;;;16.40;68.60;;;;;;4938497;29;20054;-75
2021/06/14 02:40:09;;;;;;;14.75;6.32;;;16.40;68.40;;;;;;4937307;29;20448;-74
2021/06/14 02:42:36;;;;;;;13.70;5.65;;;16.40;68.60;;;;;;4938356;29;20500;-74
2021/06/14 02:45:04;;;;;;;11.23;5.38;;;16.40;68.70;;;;;;4955358;29;20031;-74
2021/06/14 02:47:30;;;;;;;14.00;5.65;;;16.40;69.00;;;;;;4954975;29;20078;-74
2021/06/14 02:49:58;;;;;;;11.88;6.22;;;16.40;69.20;;;;;;4955150;29;20055;-74
2021/06/14 02:52:25;;;;;;;11.98;6.10;;;16.30;69.30;;;;;;4955607;29;20027;-75
2021/06/14 02:54:56;;;;;;;12.40;5.90;;;16.30;69.40;;;;;;4954783;29;20030;-74
2021/06/14 02:57:25;;;;;;;12.88;6.72;;;16.30;69.40;;;;;;4938177;29;20122;-75
2021/06/14 02:59:52;;;;;;;14.48;5.95;;;16.30;69.80;;;;;;4954621;29;20130;-76
2021/06/14 03:02:20;;;;;;;13.55;7.15;;;16.30;70.10;;;;;;4938926;29;20070;-73
2021/06/14 03:04:46;;;;;;;17.27;6.80;;;16.20;70.20;;;;;;4942303;29;20024;-75
2021/06/14 03:07:11;;;;;;;14.93;7.10;;;16.20;70.30;;;;;;4958130;29;20034;-74
2021/06/14 03:09:37;;;;;;;12.38;6.90;;;16.20;70.30;;;;;;4955359;29;20032;-76
2021/06/14 03:12:04;;;;;;;14.98;7.38;;;16.20;70.40;;;;;;4954712;29;20019;-74
2021/06/14 03:14:30;;;;;;;13.02;7.63;;;16.20;70.60;;;;;;4954936;29;20473;-75
2021/06/14 03:16:56;;;;;;;16.63;7.70;;;16.20;71.00;;;;;;4954864;29;20489;-74
2021/06/14 03:19:23;;;;;;;17.13;7.32;;;16.20;70.90;;;;;;4937514;29;20031;-74
2021/06/14 03:21:49;;;;;;;13.07;7.82;;;16.10;71.20;;;;;;4937722;29;20473;-75
2021/06/14 03:24:16;;;;;;;14.95;7.85;;;16.10;71.00;;;;;;4954693;29;20031;-74
2021/06/14 03:26:44;;;;;;;16.50;7.57;;;16.10;71.10;;;;;;4955156;29;20524;-75
2021/06/14 03:29:16;;;;;;;15.70;7.30;;;16.10;71.20;;;;;;4937747;29;20815;-74
2021/06/14 03:31:43;;;;;;;16.95;7.40;;;16.10;71.50;;;;;;4956967;29;20372;-74
2021/06/14 03:34:11;;;;;;;11.32;7.35;;;16.10;71.70;;;;;;4957692;29;20019;-75
2021/06/14 03:36:39;;;;;;;12.70;8.52;;;16.10;71.50;;;;;;4960447;29;20027;-75
2021/06/14 03:39:04;;;;;;;14.82;7.55;;;16.10;71.30;;;;;;4960114;29;20092;-74
2021/06/14 03:41:30;;;;;;;13.70;7.78;;;16.10;71.50;;;;;;4939769;29;20074;-74
2021/06/14 03:43:56;;;;;;;17.23;8.23;;;16.10;71.60;;;;;;4968300;29;20023;-76
2021/06/14 03:46:22;;;;;;;13.25;7.82;;;16.20;71.60;;;;;;4954986;29;20034;-75
2021/06/14 03:48:47;;;;;;;14.70;7.53;;;16.10;71.00;;;;;;4956068;29;20388;-74
2021/06/14 03:51:13;;;;;;;16.10;7.72;;;16.20;71.20;;;;;;4936985;29;20027;-73
2021/06/14 03:53:39;;;;;;;16.70;8.00;;;16.20;71.10;;;;;;4937415;29;20387;-74
2021/06/14 03:56:10;;;;;;;14.40;7.47;;;16.20;71.50;;;;;;4937114;29;20580;-73
2021/06/14 03:58:36;;;;;;;15.55;8.10;;;16.20;71.30;;;;;;4954152;28;20069;-73
2021/06/14 04:01:03;;;;;;;15.93;7.78;;;16.20;71.70;;;;;;4954367;29;20027;-74
2021/06/14 04:03:29;;;;;;;12.52;7.25;;;16.20;71.90;;;;;;4955085;29;20019;-75
2021/06/14 04:05:56;;;;;;;18.08;8.77;;;16.30;70.80;;;;;;4948535;29;20031;-76
2021/06/14 04:08:22;;;;;;;12.02;6.95;;;16.30;70.90;;;;;;4964771;29;20079;-75
2021/06/14 04:10:48;;;;;;;13.60;7.38;;;16.30;71.20;;;;;;4954296;29;20027;-75
2021/06/14 04:13:14;;;;;;;15.43;7.75;;;16.30;71.30;;;;;;4953807;29;20460;-75
2021/06/14 04:15:40;;;;;;;15.27;8.48;;;16.40;71.40;;;;;;4936955;29;20095;-74
2021/06/14 04:18:06;;;;;;;14.73;7.50;;;16.50;71.30;;;;;;4936845;29;20031;-75
2021/06/14 04:20:32;;;;;;;17.20;8.18;;;16.40;71.50;;;;;;4936770;29;20391;-73
2021/06/14 04:22:57;;;;;;;16.80;7.38;;;16.50;71.50;;;;;;4936612;29;20114;-74
2021/06/14 04:25:24;;;;;;;14.95;7.15;;;16.50;71.10;;;;;;4936971;29;20029;-75
2021/06/14 04:27:49;;;;;;;16.33;7.88;;;16.60;70.90;;;;;;4954271;29;20115;-74
2021/06/14 04:30:15;;;;;;;12.90;7.53;;;16.60;71.10;;;;;;4953767;29;20453;-74
2021/06/14 04:32:41;;;;;;;14.95;7.13;;;16.70;71.20;;;;;;4954020;29;20416;-74
2021/06/14 04:35:07;;;;;;;17.25;7.13;;;16.70;71.10;;;;;;4936688;29;20020;-75
2021/06/14 04:37:33;;;;;;;14.88;7.03;;;16.80;70.70;;;;;;4936996;29;20082;-74
2021/06/14 04:39:59;;;;;;;20.13;8.23;;;16.80;70.20;;;;;;4936565;29;20042;-74
2021/06/14 04:42:27;;;;;;;13.95;6.93;;;16.90;69.70;;;;;;4953725;29;20024;-74
2021/06/14 04:44:53;;;;;;;12.57;5.60;;;17.00;69.50;;;;;;4936685;29;20016;-73
2021/06/14 04:47:19;;;;;;;16.02;7.93;;;17.00;68.80;;;;;;4953752;29;20488;-73
2021/06/14 04:49:45;;;;;;;10.95;6.05;;;17.10;67.90;;;;;;4953906;29;20046;-75
2021/06/14 04:52:10;;;;;;;12.80;6.10;;;17.30;67.40;;;;;;4953530;29;20071;-74
2021/06/14 04:54:36;;;;;;;14.52;6.80;;;17.30;67.20;;;;;;4953942;29;20023;-74
2021/06/14 04:57:02;;;;;;;14.32;7.65;;;17.40;66.20;;;;;;4954038;29;20027;-73
2021/06/14 04:59:27;;;;;;;13.93;6.97;;;17.50;64.40;;;;;;4933084;29;20056;-74
2021/06/14 05:01:53;;;;;;;12.23;6.07;;;17.60;64.30;;;;;;4935086;29;20118;-73
2021/06/14 05:04:19;;;;;;;12.15;6.35;;;17.70;65.10;;;;;;4937501;29;20037;-74
2021/06/14 05:06:44;;;;;;;11.50;5.53;;;17.80;64.30;;;;;;4938491;29;20404;-75
2021/06/14 05:09:10;;;;;;;15.15;6.95;;;17.90;63.50;;;;;;4938131;29;20240;-74
2021/06/14 05:11:35;;;;;;;10.07;5.78;;;18.10;63.00;;;;;;4938251;29;20079;-74
2021/06/14 05:14:02;;;;;;;13.73;6.75;;;18.20;62.70;;;;;;4939970;29;20023;-74
2021/06/14 05:16:28;;;;;;;13.10;6.15;;;18.20;62.40;;;;;;4957420;29;20111;-75
2021/06/14 05:18:53;;;;;;;18.48;7.25;;;18.30;61.90;;;;;;4940308;29;20118;-75
2021/06/14 05:21:19;;;;;;;11.52;6.20;;;18.40;61.70;;;;;;4957434;29;20039;-74
2021/06/14 05:23:45;;;;;;;14.45;6.88;;;18.40;61.90;;;;;;4961018;29;20102;-75
2021/06/14 05:26:10;;;;;;;14.52;6.57;;;18.50;61.20;;;;;;4958462;29;20456;-74
2021/06/14 05:28:36;;;;;;;12.25;6.05;;;18.60;61.00;;;;;;4939936;29;20031;-74
2021/06/14 05:31:02;;;;;;;11.65;5.38;;;18.70;60.70;;;;;;4956633;29;20495;-73
2021/06/14 05:33:29;;;;;;;13.23;6.30;;;18.70;60.60;;;;;;4953136;29;20019;-75
2021/06/14 05:35:54;;;;;;;12.98;6.72;;;18.80;60.30;;;;;;4920760;29;20054;-74
2021/06/14 05:38:20;;;;;;;11.45;5.30;;;18.90;60.10;;;;;;4942128;29;20413;-74
2021/06/14 05:40:46;;;;;;;11.90;5.65;;;19.00;60.00;;;;;;4940921;29;20483;-75
2021/06/14 05:43:11;;;;;;;17.02;7.70;;;19.00;59.90;;;;;;4939563;29;20024;-74
2021/06/14 05:45:37;;;;;;;12.05;6.47;;;19.10;59.50;;;;;;4941134;29;20032;-74
2021/06/14 05:48:03;;;;;;;14.25;6.15;;;19.20;59.50;;;;;;4938628;29;20086;-74
2021/06/14 05:50:29;;;;;;;13.65;5.85;;;19.20;58.20;;;;;;4938215;29;20477;-74
2021/06/14 05:52:54;;;;;;;12.05;5.10;;;19.30;58.20;;;;;;4938029;29;20038;-76
2021/06/14 05:55:20;;;;;;;10.75;5.47;;;19.30;59.30;;;;;;4937926;29;20035;-75
2021/06/14 05:57:46;;;;;;;12.77;5.50;;;19.40;60.00;;;;;;4922640;29;20027;-75
2021/06/14 06:00:12;;;;;;;9.40;4.53;;;19.50;59.20;;;;;;4939142;29;20043;-75
2021/06/14 06:02:37;;;;;;;11.35;6.47;;;19.50;60.70;;;;;;4956787;29;20015;-74
2021/06/14 06:05:06;;;;;;;13.18;7.05;;;19.60;59.50;;;;;;4956411;29;20031;-75
2021/06/14 06:07:32;;;;;;;14.32;6.45;;;19.60;59.20;;;;;;4940035;29;20023;-74
2021/06/14 06:09:57;;;;;;;13.77;6.50;;;19.70;58.70;;;;;;4968284;29;20034;-74
2021/06/14 06:12:23;;;;;;;9.68;5.50;;;19.70;57.60;;;;;;4955675;29;20031;-75
2021/06/14 06:14:49;;;;;;;10.70;5.93;;;19.80;57.60;;;;;;4943249;29;20487;-74
2021/06/14 06:17:15;;;;;;;12.80;6.32;;;19.90;57.80;;;;;;4956355;29;20114;-77
2021/06/14 06:19:40;;;;;;;15.07;5.25;;;19.90;56.90;;;;;;4957239;29;20114;-75
2021/06/14 06:22:06;;;;;;;11.70;5.72;;;19.90;57.00;;;;;;4956293;29;20052;-74
2021/06/14 06:24:32;;;;;;;14.35;4.82;;;19.90;56.90;;;;;;4956860;29;20028;-75
2021/06/14 06:26:59;;;;;;;12.68;5.95;;;20.00;57.50;;;;;;4938775;29;20486;-74
2021/06/14 06:29:25;;;;;;;9.75;4.88;;;20.10;57.00;;;;;;4955542;29;20042;-74
2021/06/14 06:31:51;;;;;;;7.72;3.60;;;20.10;57.30;;;;;;4956085;29;20038;-75
2021/06/14 06:34:17;;;;;;;7.75;3.65;;;20.20;59.30;;;;;;4938609;29;20099;-75
2021/06/14 06:36:42;;;;;;;12.52;5.75;;;20.40;58.60;;;;;;4955646;29;20031;-75
2021/06/14 06:39:08;;;;;;;12.30;5.53;;;20.50;56.40;;;;;;4955692;29;20027;-75
2021/06/14 06:41:33;;;;;;;15.38;5.28;;;20.70;55.40;;;;;;4955426;29;20459;-74
2021/06/14 06:43:59;;;;;;;8.32;4.72;;;20.80;55.70;;;;;;4955472;29;20519;-74
2021/06/14 06:46:25;;;;;;;12.25;5.47;;;20.90;56.60;;;;;;4955156;29;20035;-74
2021/06/14 06:48:50;;;;;;;14.23;6.10;;;21.00;56.10;;;;;;4938179;29;20710;-75
2021/06/14 06:51:16;;;;;;;12.98;5.40;;;21.00;55.80;;;;;;4955152;29;20027;-75
2021/06/14 06:53:41;;;;;;;12.85;5.75;;;20.90;56.20;;;;;;4937960;29;20027;-75
2021/06/14 06:56:08;;;;;;;12.50;5.40;;;21.00;55.80;;;;;;4954696;29;20496;-75
2021/06/14 06:58:33;;;;;;;8.68;3.83;;;21.10;55.90;;;;;;4955095;29;20059;-74
2021/06/14 07:00:59;;;;;;;10.52;4.38;;;21.20;56.20;;;;;;4955129;29;20094;-74
2021/06/14 07:03:24;;;;;;;14.60;6.47;;;21.30;56.10;;;;;;4954999;29;20078;-74
2021/06/14 07:05:51;;;;;;;15.77;5.53;;;21.30;55.20;;;;;;4955235;29;20461;-74
2021/06/14 07:08:16;;;;;;;11.23;4.28;;;21.40;54.90;;;;;;4954904;29;20051;-74
2021/06/14 07:10:43;;;;;;;10.63;4.82;;;21.70;55.90;;;;;;4953800;29;20035;-73
2021/06/14 07:13:09;;;;;;;11.70;5.30;;;21.80;54.80;;;;;;4955567;29;20027;-75
2021/06/14 07:15:38;;;;;;;15.40;6.05;;;22.00;54.20;;;;;;4958776;29;20483;-75
2021/06/14 07:18:04;;;;;;;11.32;5.35;;;22.20;53.30;;;;;;4955310;29;20023;-74
2021/06/14 07:20:29;;;;;;;7.38;3.60;;;22.20;53.90;;;;;;4954571;29;20408;-75
2021/06/14 07:22:56;;;;;;;9.90;3.88;;;22.30;54.30;;;;;;4937064;29;20030;-75
2021/06/14 07:25:22;;;;;;;10.65;4.97;;;22.40;54.80;;;;;;4954064;28;20457;-75
2021/06/14 07:27:48;;;;;;;9.38;3.88;;;22.50;53.60;;;;;;4954698;29;20081;-75
2021/06/14 07:30:15;;;;;;;10.50;4.60;;;22.60;52.90;;;;;;4954308;29;20106;-75
2021/06/14 07:32:42;;;;;;;8.95;3.55;;;22.80;51.90;;;;;;4954715;29;20030;-75
2021/06/14 07:35:08;;;;;;;12.93;4.72;;;22.80;53.20;;;;;;4937253;29;20482;-75
2021/06/14 07:37:33;;;;;;;10.25;3.83;;;22.70;51.30;;;;;;4955372;29;20079;-76
2021/06/14 07:39:59;;;;;;;8.95;3.83;;;22.80;51.70;;;;;;4960272;29;20074;-75
2021/06/14 07:42:26;;;;;;;6.40;3.45;;;23.00;52.30;;;;;;4957778;29;20031;-72
2021/06/14 07:44:51;;;;;;;8.60;4.20;;;23.00;51.30;;;;;;4960577;29;20075;-75
2021/06/14 07:47:17;;;;;;;9.80;3.38;;;23.10;52.20;;;;;;4937352;29;20031;-75
2021/06/14 07:49:43;;;;;;;10.43;4.78;;;23.20;51.60;;;;;;4954493;29;20042;-75
2021/06/14 07:52:09;;;;;;;8.50;3.38;;;23.30;52.20;;;;;;4937172;29;20027;-75
2021/06/14 07:54:35;;;;;;;6.80;3.35;;;23.40;52.00;;;;;;4954556;29;20055;-76
2021/06/14 07:57:01;;;;;;;8.77;3.17;;;23.50;51.50;;;;;;4954528;29;20105;-76
2021/06/14 07:59:26;;;;;;;8.10;3.70;;;23.60;51.30;;;;;;4953156;29;20138;-75
2021/06/14 08:01:52;;;;;;;6.25;2.78;;;23.80;51.10;;;;;;4953302;29;20031;-75
2021/06/14 08:04:18;;;;;;;8.25;3.15;;;23.90;51.20;;;;;;4954811;29;20027;-74
2021/06/14 08:06:44;;;;;;;12.95;3.80;;;24.10;50.50;;;;;;4954115;29;20473;-74
2021/06/14 08:09:12;;;;;;;12.40;4.60;;;24.00;49.80;;;;;;4937450;29;20046;-76
2021/06/14 08:11:39;;;;;;;12.32;4.35;;;24.10;49.10;;;;;;4939422;29;20034;-75
2021/06/14 08:14:05;;;;;;;7.75;3.33;;;24.20;48.70;;;;;;4948060;29;20031;-74
2021/06/14 08:16:38;;;;;;;9.43;3.50;;;24.30;50.40;;;;;;4960908;29;20024;-75
2021/06/14 08:19:08;;;;;;;6.60;2.95;;;24.40;48.80;;;;;;4952620;29;20019;-74
2021/06/14 08:22:09;;;;;;;;;;;24.50;50.40;;;;;;4954935;29;20144;-75
2021/06/14 08:27:19;;;;;;;10.88;4.00;;;24.60;47.10;;;;;;4955799;29;20213;-75
2021/06/14 08:29:45;;;;;;;7.68;3.55;;;24.60;48.10;;;;;;4953896;29;20524;-76
2021/06/14 08:32:10;;;;;;;9.15;3.75;;;24.60;48.10;;;;;;4953700;29;20107;-75
2021/06/14 08:34:36;;;;;;;7.07;3.30;;;24.80;48.80;;;;;;4954084;29;20030;-74
2021/06/14 08:37:02;;;;;;;8.77;3.90;;;24.90;47.10;;;;;;4953632;28;20070;-75
2021/06/14 08:39:28;;;;;;;9.18;3.25;;;25.00;46.40;;;;;;4956976;29;20078;-74
2021/06/14 08:41:54;;;;;;;11.80;4.60;;;25.30;47.60;;;;;;4956506;29;20454;-75
2021/06/14 08:44:21;;;;;;;11.07;4.28;;;25.60;45.50;;;;;;4957643;29;20031;-74
2021/06/14 08:46:53;;;;;;;8.90;3.22;;;25.60;45.40;;;;;;4957861;29;20376;-75
2021/06/14 08:49:18;;;;;;;10.60;4.03;;;25.60;45.40;;;;;;4957455;29;20023;-75
2021/06/14 08:51:45;;;;;;;10.23;5.22;;;25.80;44.60;;;;;;4957386;29;20131;-75
2021/06/14 08:54:11;;;;;;;8.98;3.95;;;25.90;44.70;;;;;;4957389;29;20045;-74
2021/06/14 08:56:36;;;;;;;7.75;3.60;;;26.10;45.30;;;;;;4957580;29;20030;-75
2021/06/14 08:59:03;;;;;;;7.68;3.53;;;26.20;44.70;;;;;;4939715;29;20050;-75
2021/06/14 09:01:29;;;;;;;11.43;3.97;;;26.20;46.40;;;;;;4940284;29;20053;-74
2021/06/14 09:03:55;;;;;;;8.50;3.92;;;26.10;46.30;;;;;;4958421;29;20391;-75
2021/06/14 09:06:21;;;;;;;9.65;4.50;;;26.00;44.60;;;;;;4963069;29;20535;-75
2021/06/14 09:09:03;;;;;;;8.85;4.45;;;26.10;44.70;;;;;;4958419;29;20070;-73
2021/06/14 09:11:31;;;;;;;7.90;3.88;;;26.30;45.60;;;;;;4957221;29;20023;-75
2021/06/14 09:14:00;;;;;;;10.18;4.05;;;26.60;44.20;;;;;;4940243;29;20027;-75
2021/06/14 09:16:31;;;;;;;9.57;3.33;;;26.80;46.20;;;;;;4957051;29;20087;-75
2021/06/14 09:18:57;;;;;;;8.85;4.25;;;27.10;44.20;;;;;;4957539;29;20090;-75
2021/06/14 09:21:27;;;;;;;14.85;4.25;;;27.30;45.20;;;;;;4956760;29;20030;-74
2021/06/14 09:23:55;;;;;;;10.13;3.70;;;27.30;39.40;;;;;;4957688;29;20034;-74
2021/06/14 09:26:22;;;;;;;11.93;3.90;;;27.30;41.30;;;;;;4957243;29;20027;-75
2021/06/14 09:28:49;;;;;;;11.57;4.65;;;27.40;39.70;;;;;;4955909;29;20031;-75
2021/06/14 09:31:16;;;;;;;13.57;4.18;;;27.50;40.20;;;;;;4939758;29;20386;-75
2021/06/14 09:33:43;;;;;;;14.73;5.88;;;27.60;38.90;;;;;;4957223;29;20023;-75
2021/06/14 09:36:09;;;;;;;12.15;5.43;;;27.80;39.50;;;;;;4956842;29;20114;-75
2021/06/14 09:38:35;;;;;;;10.98;4.40;;;27.80;40.10;;;;;;4962985;29;20452;-76
2021/06/14 09:41:09;;;;;;;9.57;3.53;;;27.70;40.50;;;;;;4945594;29;20038;-74
2021/06/14 09:43:37;;;;;;;8.77;4.97;;;27.60;41.90;;;;;;4946740;29;20058;-75
2021/06/14 09:46:21;;;;;;;12.95;4.80;;;27.80;42.60;;;;;;4944532;29;20035;-75
2021/06/14 09:48:49;;;;;;;8.68;3.75;;;28.00;41.60;;;;;;4956774;28;20027;-75
2021/06/14 09:51:14;;;;;;;10.57;4.93;;;28.30;44.30;;;;;;4956622;29;20031;-76
2021/06/14 09:53:47;;;;;;;14.10;7.20;;;28.40;42.10;;;;;;4939614;29;20028;-75
2021/06/14 09:56:36;;;;;;;15.20;8.90;;;28.40;37.90;;;;;;4939256;29;20019;-76
2021/06/14 09:59:03;;;;;;;13.55;6.78;;;28.40;37.70;;;;;;4956862;29;20050;-75
2021/06/14 10:01:35;;;;;;;13.00;7.80;;;28.40;39.90;;;;;;4956414;29;20037;-74
2021/06/14 10:04:06;;;;;;;16.23;8.73;;;28.50;38.70;;;;;;4956810;29;20311;-74
2021/06/14 10:06:37;;;;;;;15.13;7.85;;;28.70;39.30;;;;;;4957554;29;20050;-75
2021/06/14 10:09:23;;;;;;;10.13;4.40;;;28.90;38.00;;;;;;4957365;29;20170;-75
2021/06/14 10:11:49;;;;;;;18.10;8.65;;;29.00;43.50;;;;;;4956433;29;20039;-75
2021/06/14 10:14:21;;;;;;;11.23;5.30;;;29.10;43.00;;;;;;4957684;29;20021;-75
2021/06/14 10:16:50;;;;;;;11.00;6.75;;;29.00;41.10;;;;;;4967108;29;20035;-75
2021/06/14 10:19:17;;;;;;;13.00;8.27;;;29.00;40.80;;;;;;4969977;29;20103;-75
2021/06/14 10:21:51;;;;;;;12.30;7.05;;;28.90;39.40;;;;;;4956718;29;20374;-74
2021/06/14 10:24:18;;;;;;;12.52;7.05;;;28.90;41.40;;;;;;4956518;29;20023;-75
2021/06/14 10:26:48;;;;;;;8.50;4.00;;;29.00;40.40;;;;;;4954985;29;20031;-74
2021/06/14 10:29:15;;;;;;;11.95;7.00;;;29.10;43.70;;;;;;4955698;29;20051;-74
2021/06/14 10:31:46;;;;;;;12.45;6.95;;;29.30;40.60;;;;;;4955587;29;20054;-74
2021/06/14 10:34:14;;;;;;;12.70;8.18;;;29.40;37.50;;;;;;4955720;29;20031;-75
2021/06/14 10:36:44;;;;;;;15.13;7.57;;;29.50;35.90;;;;;;4955558;29;20484;-75
2021/06/14 10:39:11;;;;;;;9.18;4.82;;;29.60;37.50;;;;;;4955718;29;20113;-73
2021/06/14 10:41:37;;;;;;;15.15;9.57;;;29.60;43.10;;;;;;4955803;29;20066;-75
2021/06/14 10:44:06;;;;;;;12.57;7.82;;;29.80;35.60;;;;;;4954561;29;20114;-75
2021/06/14 10:46:32;;;;;;;14.15;8.18;;;29.90;35.90;;;;;;4955656;29;20023;-74
2021/06/14 10:49:01;;;;;;;12.00;6.10;;;30.00;35.50;;;;;;4955225;29;20034;-75
2021/06/14 10:51:27;;;;;;;13.85;8.63;;;29.90;37.20;;;;;;4955463;29;20115;-75
2021/06/14 10:54:15;;;;;;;10.55;5.70;;;29.80;33.70;;;;;;4956011;29;20038;-75
2021/06/14 10:56:41;;;;;;;13.65;7.13;;;29.90;36.60;;;;;;4962292;29;20027;-75
2021/06/14 10:59:10;;;;;;;8.82;4.60;;;30.00;38.80;;;;;;4938854;29;20048;-75
2021/06/14 11:01:38;;;;;;;12.63;4.93;;;30.00;40.90;;;;;;4955333;28;20035;-75
2021/06/14 11:04:06;;;;;;;6.35;3.00;;;30.10;37.90;;;;;;4958928;29;20067;-76
2021/06/14 11:06:35;;;;;;;10.23;5.53;;;30.40;45.50;;;;;;4961147;29;20050;-75
2021/06/14 11:09:10;;;;;;;7.25;3.72;;;30.50;35.20;;;;;;4957097;29;20058;-75
2021/06/14 11:11:58;;;;;;;10.23;5.05;;;30.60;40.60;;;;;;4950325;29;20035;-75
2021/06/14 11:14:30;;;;;;;10.32;3.90;;;30.70;36.30;;;;;;4953907;29;20507;-74
2021/06/14 11:17:15;;;;;;;9.07;5.10;;;30.90;40.90;;;;;;4938058;29;20027;-75
2021/06/14 11:19:41;;;;;;;10.82;4.10;;;31.00;41.50;;;;;;4955347;29;20042;-76
2021/06/14 11:22:07;;;;;;;18.65;7.18;;;31.20;41.00;;;;;;4937984;29;20019;-75
2021/06/14 11:24:35;;;;;;;7.78;3.92;;;31.40;35.60;;;;;;4937834;29;20158;-75
2021/06/14 11:27:01;;;;;;;11.65;6.38;;;31.30;40.00;;;;;;4955290;29;20102;-75
2021/06/14 11:29:27;;;;;;;8.70;5.05;;;31.20;33.40;;;;;;4955011;29;20023;-74
2021/06/14 11:32:02;;;;;;;15.38;6.70;;;31.20;37.60;;;;;;4955240;29;20024;-75
2021/06/14 11:34:42;;;;;;;12.52;6.85;;;31.20;35.40;;;;;;4937748;29;20034;-76
2021/06/14 11:37:08;;;;;;;14.60;5.93;;;31.20;33.10;;;;;;4956241;29;20031;-76
2021/06/14 11:39:34;;;;;;;9.93;4.75;;;31.30;32.80;;;;;;4966196;29;20027;-75
2021/06/14 11:42:20;;;;;;;9.30;5.03;;;31.30;38.90;;;;;;4963609;29;20390;-75
2021/06/14 11:44:52;;;;;;;9.60;3.95;;;31.30;34.40;;;;;;4972614;29;20050;-76
2021/06/14 11:47:20;;;;;;;13.05;5.00;;;31.40;36.70;;;;;;4955140;29;20046;-76
2021/06/14 11:49:49;;;;;;;8.80;4.18;;;31.60;36.10;;;;;;4954587;29;20023;-75
2021/06/14 11:52:35;;;;;;;10.00;3.92;;;31.80;35.10;;;;;;4954511;29;20092;-74
2021/06/14 11:55:11;;;;;;;10.60;4.35;;;31.80;37.30;;;;;;4954708;29;20023;-75
2021/06/14 11:57:43;;;;;;;8.43;3.35;;;32.10;33.90;;;;;;4954350;29;20077;-75
2021/06/14 12:00:32;;;;;;;9.18;4.43;;;32.10;35.20;;;;;;4954782;29;20118;-75
2021/06/14 12:02:58;;;;;;;9.00;3.45;;;32.20;34.80;;;;;;4954526;29;20449;-75
2021/06/14 12:05:35;;;;;;;8.57;4.25;;;32.20;37.30;;;;;;4954631;29;20031;-75
2021/06/14 12:08:03;;;;;;;8.55;3.92;;;32.30;37.30;;;;;;4954674;29;20046;-75
2021/06/14 12:10:29;;;;;;;6.75;3.85;;;32.30;34.00;;;;;;4954374;29;20023;-75
2021/06/14 12:13:05;;;;;;;8.75;3.20;;;32.40;37.50;;;;;;4955425;29;20035;-76
2021/06/14 12:15:31;;;;;;;7.78;3.80;;;32.40;36.40;;;;;;4937490;29;20122;-73
2021/06/14 12:17:57;;;;;;;12.20;5.20;;;32.50;40.40;;;;;;4958183;29;20035;-73
2021/06/14 12:20:30;;;;;;;9.40;3.63;;;32.30;40.30;;;;;;4965153;29;20035;-74
2021/06/14 12:23:16;;;;;;;7.95;4.25;;;32.20;37.90;;;;;;4959148;28;20031;-75
2021/06/14 12:25:47;;;;;;;7.63;5.03;;;32.10;34.80;;;;;;4954323;29;20187;-73
2021/06/14 12:28:19;;;;;;;7.95;3.70;;;32.20;32.90;;;;;;4953762;29;20110;-74
2021/06/14 12:31:12;;;;;;;10.35;4.45;;;32.30;36.50;;;;;;4953975;29;20106;-74
2021/06/14 12:33:40;;;;;;;9.60;4.63;;;32.40;39.30;;;;;;4949992;28;20354;-74
2021/06/14 12:36:07;;;;;;;9.45;4.22;;;32.50;35.60;;;;;;4953776;29;20020;-74
2021/06/14 12:38:33;;;;;;;8.25;3.85;;;32.70;34.90;;;;;;4953952;29;20031;-74
2021/06/14 12:41:01;;;;;;;10.50;4.45;;;32.80;34.80;;;;;;4953569;29;20031;-74
2021/06/14 12:43:34;;;;;;;9.48;4.10;;;33.00;34.80;;;;;;4953991;29;20361;-74
2021/06/14 12:46:00;;;;;;;4.97;2.50;;;33.20;35.80;;;;;;4958931;29;20027;-73
2021/06/14 12:48:26;;;;;;;9.70;3.85;;;33.30;39.50;;;;;;4955029;29;20037;-74